createdAt,value
2019-05-11T00:00:19.574Z,8.40
2019-05-11T00:02:48.372Z,8.40
2019-05-11T00:05:18.383Z,8.40
2019-05-11T00:07:47.174Z,8.40
2019-05-11T00:10:16.181Z,8.30
2019-05-11T00:12:45.041Z,8.30
2019-05-11T00:15:14.210Z,8.30
2019-05-11T00:17:43.001Z,8.30
2019-05-11T00:20:12.267Z,8.30
2019-05-11T00:22:41.129Z,8.30
2019-05-11T00:25:10.200Z,8.30
2019-05-11T00:27:38.969Z,8.30
2019-05-11T00:30:08.705Z,8.30
2019-05-11T00:32:37.493Z,8.30
2019-05-11T00:35:07.892Z,8.30
2019-05-11T00:37:36.733Z,8.30
2019-05-11T00:40:14.235Z,8.30
2019-05-11T00:42:37.450Z,8.30
2019-05-11T00:45:07.343Z,8.30
2019-05-11T00:47:36.084Z,8.30
2019-05-11T00:50:07.396Z,8.30
2019-05-11T00:52:36.111Z,8.30
2019-05-11T00:55:06.852Z,8.20
2019-05-11T00:57:35.606Z,8.20
2019-05-11T01:00:08.346Z,8.30
2019-05-11T01:02:37.090Z,8.30
2019-05-11T01:05:07.119Z,8.30
2019-05-11T01:07:35.864Z,8.30
2019-05-11T01:10:22.950Z,8.30
2019-05-11T01:12:38.554Z,8.40
2019-05-11T01:15:07.627Z,8.30
2019-05-11T01:17:36.401Z,8.30
2019-05-11T01:20:08.078Z,8.20
2019-05-11T01:22:36.882Z,8.20
2019-05-11T01:25:06.765Z,8.20
2019-05-11T01:27:35.609Z,8.20
2019-05-11T01:30:05.718Z,8.30
2019-05-11T01:32:34.495Z,8.20
2019-05-11T01:35:03.249Z,8.30
2019-05-11T01:37:32.091Z,8.30
2019-05-11T01:40:00.861Z,8.30
2019-05-11T01:42:29.701Z,8.30
2019-05-11T01:44:58.495Z,8.30
2019-05-11T01:47:27.240Z,8.30
2019-05-11T01:49:56.049Z,8.30
2019-05-11T01:52:24.768Z,8.30
2019-05-11T01:54:53.606Z,8.30
2019-05-11T01:57:22.424Z,8.30
2019-05-11T01:59:51.368Z,8.30
2019-05-11T02:02:20.141Z,8.20
2019-05-11T02:04:50.542Z,8.20
2019-05-11T02:07:19.794Z,8.20
2019-05-11T02:09:48.602Z,8.30
2019-05-11T02:12:17.478Z,8.20
2019-05-11T02:14:46.208Z,8.20
2019-05-11T02:17:14.934Z,8.20
2019-05-11T02:19:44.019Z,8.20
2019-05-11T02:22:12.808Z,8.10
2019-05-11T02:24:41.612Z,8.10
2019-05-11T02:27:10.450Z,8.10
2019-05-11T02:29:41.456Z,8.10
2019-05-11T02:32:09.813Z,8.10
2019-05-11T02:34:39.272Z,8.20
2019-05-11T02:37:08.089Z,8.10
2019-05-11T02:39:36.869Z,8.10
2019-05-11T02:42:05.718Z,8.10
2019-05-11T02:44:34.532Z,8.20
2019-05-11T02:47:03.512Z,8.20
2019-05-11T02:49:32.497Z,8.20
2019-05-11T02:52:01.516Z,8.10
2019-05-11T02:54:31.077Z,8.10
2019-05-11T02:56:59.871Z,8.10
2019-05-11T02:59:29.986Z,8.10
2019-05-11T03:01:59.062Z,8.10
2019-05-11T03:04:27.907Z,8.10
2019-05-11T03:06:56.620Z,8.00
2019-05-11T03:09:25.422Z,8.00
2019-05-11T03:11:56.266Z,8.00
2019-05-11T03:14:24.683Z,8.00
2019-05-11T03:17:11.490Z,8.10
2019-05-11T03:19:40.503Z,8.10
2019-05-11T03:22:09.322Z,8.20
2019-05-11T03:24:38.625Z,8.10
2019-05-11T03:27:07.410Z,8.10
2019-05-11T03:29:36.320Z,8.10
2019-05-11T03:32:05.141Z,8.00
2019-05-11T03:34:33.966Z,7.90
2019-05-11T03:37:02.791Z,7.90
2019-05-11T03:39:31.737Z,7.90
2019-05-11T03:42:13.786Z,7.90
2019-05-11T03:44:30.885Z,7.90
2019-05-11T03:47:00.160Z,7.80
2019-05-11T03:49:28.939Z,7.90
2019-05-11T03:51:57.683Z,7.90
2019-05-11T03:54:26.447Z,7.90
2019-05-11T03:56:55.438Z,7.80
2019-05-11T03:59:24.240Z,7.80
2019-05-11T04:01:53.083Z,7.80
2019-05-11T04:04:21.900Z,7.70
2019-05-11T04:06:50.627Z,7.70
2019-05-11T04:09:19.421Z,7.70
2019-05-11T04:11:48.248Z,7.80
2019-05-11T04:14:16.970Z,7.80
2019-05-11T04:16:45.731Z,7.80
2019-05-11T04:19:14.738Z,7.70
2019-05-11T04:21:43.456Z,7.80
2019-05-11T04:24:12.218Z,7.70
2019-05-11T04:26:41.025Z,7.80
2019-05-11T04:29:09.832Z,7.70
2019-05-11T04:31:38.776Z,7.70
2019-05-11T04:34:07.507Z,7.80
2019-05-11T04:36:36.305Z,7.80
2019-05-11T04:39:06.986Z,7.70
2019-05-11T04:41:35.887Z,7.70
2019-05-11T04:44:04.703Z,7.70
2019-05-11T04:46:33.537Z,7.70
2019-05-11T04:49:02.337Z,7.70
2019-05-11T04:51:31.123Z,7.70
2019-05-11T04:54:00.014Z,7.70
2019-05-11T04:56:28.844Z,7.70
2019-05-11T04:58:57.626Z,7.70
2019-05-11T05:01:26.419Z,7.70
2019-05-11T05:03:57.749Z,7.70
2019-05-11T05:06:25.965Z,7.70
2019-05-11T05:08:58.190Z,7.70
2019-05-11T05:11:25.195Z,7.70
2019-05-11T05:13:53.973Z,7.60
2019-05-11T05:16:22.801Z,7.60
2019-05-11T05:18:51.541Z,7.50
2019-05-11T05:21:20.282Z,7.50
2019-05-11T05:23:49.182Z,7.50
2019-05-11T05:26:17.993Z,7.50
2019-05-11T05:28:46.980Z,7.60
2019-05-11T05:31:15.817Z,7.60
2019-05-11T05:33:44.612Z,7.60
2019-05-11T05:36:13.428Z,7.50
2019-05-11T05:38:42.280Z,7.60
2019-05-11T05:41:11.206Z,7.50
2019-05-11T05:43:39.972Z,7.50
2019-05-11T05:46:08.812Z,7.50
2019-05-11T05:48:37.615Z,7.50
2019-05-11T05:51:06.571Z,7.60
2019-05-11T05:53:35.360Z,7.70
2019-05-11T05:56:04.193Z,7.80
2019-05-11T05:58:32.962Z,7.80
2019-05-11T06:01:02.027Z,7.90
2019-05-11T06:03:30.828Z,7.90
2019-05-11T06:05:59.556Z,8.00
2019-05-11T06:08:28.396Z,8.00
2019-05-11T06:10:57.209Z,8.00
2019-05-11T06:13:42.759Z,8.00
2019-05-11T06:15:56.373Z,8.00
2019-05-11T06:18:25.194Z,8.00
2019-05-11T06:20:54.129Z,8.10
2019-05-11T06:23:22.854Z,8.10
2019-05-11T06:25:51.626Z,8.00
2019-05-11T06:28:21.415Z,8.10
2019-05-11T06:30:50.174Z,8.20
2019-05-11T06:33:19.072Z,8.20
2019-05-11T06:35:47.966Z,8.30
2019-05-11T06:38:16.771Z,8.20
2019-05-11T06:40:45.573Z,8.20
2019-05-11T06:43:14.526Z,8.20
2019-05-11T06:45:43.651Z,8.30
2019-05-11T06:48:12.459Z,8.40
2019-05-11T06:50:41.542Z,8.40
2019-05-11T06:53:10.287Z,8.50
2019-05-11T06:55:39.096Z,8.50
2019-05-11T06:58:07.872Z,8.60
2019-05-11T07:00:36.858Z,8.50
2019-05-11T07:03:05.582Z,8.50
2019-05-11T07:05:34.416Z,8.60
2019-05-11T07:08:03.203Z,8.40
2019-05-11T07:10:32.174Z,8.40
2019-05-11T07:13:01.016Z,8.40
2019-05-11T07:15:29.853Z,8.50
2019-05-11T07:17:58.670Z,8.30
2019-05-11T07:20:27.485Z,8.30
2019-05-11T07:22:56.287Z,8.20
2019-05-11T07:25:25.134Z,8.20
2019-05-11T07:27:53.942Z,8.20
2019-05-11T07:30:22.906Z,8.20
2019-05-11T07:32:51.670Z,8.20
2019-05-11T07:35:20.408Z,8.30
2019-05-11T07:37:49.119Z,8.40
2019-05-11T07:40:19.015Z,8.40
2019-05-11T07:42:48.538Z,8.50
2019-05-11T07:45:18.040Z,8.60
2019-05-11T07:47:48.564Z,8.60
2019-05-11T07:50:18.647Z,8.70
2019-05-11T07:52:48.265Z,8.80
2019-05-11T07:55:19.069Z,8.90
2019-05-11T07:57:48.357Z,8.90
2019-05-11T08:00:18.655Z,9.00
2019-05-11T08:02:48.086Z,9.10
2019-05-11T08:05:17.978Z,9.10
2019-05-11T08:07:48.211Z,9.30
2019-05-11T08:10:19.146Z,9.30
2019-05-11T08:12:48.249Z,9.30
2019-05-11T08:15:18.459Z,9.20
2019-05-11T08:17:48.728Z,9.40
2019-05-11T08:20:18.672Z,9.50
2019-05-11T08:22:48.322Z,9.60
2019-05-11T08:25:18.200Z,9.50
2019-05-11T08:27:48.466Z,9.40
2019-05-11T08:30:18.872Z,9.50
2019-05-11T08:32:49.298Z,9.60
2019-05-11T08:35:18.762Z,9.70
2019-05-11T08:37:47.998Z,9.60
2019-05-11T08:40:19.170Z,9.60
2019-05-11T08:42:48.319Z,9.50
2019-05-11T08:45:24.173Z,9.40
2019-05-11T08:47:48.496Z,9.30
2019-05-11T08:50:19.236Z,9.30
2019-05-11T08:52:48.115Z,9.40
2019-05-11T08:55:19.023Z,9.30
2019-05-11T08:57:48.111Z,9.30
2019-05-11T09:00:18.294Z,9.40
2019-05-11T09:02:50.415Z,9.40
2019-05-11T09:05:18.681Z,9.40
2019-05-11T09:07:48.481Z,9.20
2019-05-11T09:10:18.567Z,9.10
2019-05-11T09:12:48.855Z,9.00
2019-05-11T09:15:32.773Z,9.10
2019-05-11T09:17:48.853Z,9.10
2019-05-11T09:20:18.151Z,9.30
2019-05-11T09:22:48.478Z,9.40
2019-05-11T09:25:18.284Z,9.40
2019-05-11T09:27:48.222Z,9.50
2019-05-11T09:30:18.375Z,9.60
2019-05-11T09:32:47.917Z,9.60
2019-05-11T09:35:18.978Z,9.80
2019-05-11T09:37:48.457Z,9.90
2019-05-11T09:40:18.893Z,9.80
2019-05-11T09:42:48.039Z,9.90
2019-05-11T09:45:18.642Z,9.80
2019-05-11T09:47:48.029Z,9.80
2019-05-11T09:50:18.578Z,10.00
2019-05-11T09:52:48.958Z,10.00
2019-05-11T09:55:19.005Z,10.00
2019-05-11T09:57:48.790Z,10.10
2019-05-11T10:00:19.483Z,10.10
2019-05-11T10:02:48.910Z,10.10
2019-05-11T10:05:18.855Z,10.30
2019-05-11T10:07:48.511Z,10.50
2019-05-11T10:10:18.997Z,10.50
2019-05-11T10:12:48.960Z,10.40
2019-05-11T10:15:19.087Z,10.30
2019-05-11T10:17:48.386Z,10.10
2019-05-11T10:20:18.125Z,10.00
2019-05-11T10:22:48.690Z,10.00
2019-05-11T10:25:18.440Z,10.20
2019-05-11T10:27:48.914Z,10.30
2019-05-11T10:30:21.689Z,10.20
2019-05-11T10:32:50.515Z,10.30
2019-05-11T10:35:19.259Z,10.40
2019-05-11T10:37:48.452Z,10.60
2019-05-11T10:40:18.992Z,10.80
2019-05-11T10:42:48.542Z,10.90
2019-05-11T10:45:18.110Z,11.00
2019-05-11T10:47:49.000Z,11.30
2019-05-11T10:50:18.739Z,11.40
2019-05-11T10:52:48.502Z,11.40
2019-05-11T10:55:19.577Z,11.20
2019-05-11T10:57:48.871Z,11.10
2019-05-11T11:00:19.823Z,11.20
2019-05-11T11:02:48.713Z,11.10
2019-05-11T11:05:18.776Z,11.20
2019-05-11T11:07:48.792Z,11.40
2019-05-11T11:10:18.333Z,11.50
2019-05-11T11:12:48.954Z,11.80
2019-05-11T11:15:21.807Z,12.00
2019-05-11T11:17:50.557Z,11.90
2019-05-11T11:20:19.531Z,11.90
2019-05-11T11:22:48.560Z,11.70
2019-05-11T11:25:18.117Z,11.50
2019-05-11T11:27:48.656Z,11.40
2019-05-11T11:30:18.296Z,11.40
2019-05-11T11:32:48.271Z,11.60
2019-05-11T11:35:18.695Z,12.00
2019-05-11T11:37:47.983Z,12.30
2019-05-11T11:40:17.867Z,12.00
2019-05-11T11:42:47.823Z,12.00
2019-05-11T11:45:18.296Z,11.90
2019-05-11T11:47:49.299Z,11.90
2019-05-11T11:50:18.232Z,11.90
2019-05-11T11:52:47.748Z,12.00
2019-05-11T11:55:18.558Z,12.20
2019-05-11T11:57:49.683Z,12.10
2019-05-11T12:00:21.042Z,12.10
2019-05-11T12:02:51.722Z,12.00
2019-05-11T12:05:20.488Z,12.00
2019-05-11T12:07:49.339Z,11.80
2019-05-11T12:10:19.773Z,11.90
2019-05-11T12:12:48.512Z,11.90
2019-05-11T12:15:17.897Z,11.70
2019-05-11T12:17:48.290Z,11.90
2019-05-11T12:20:18.155Z,12.20
2019-05-11T12:22:47.723Z,12.40
2019-05-11T12:25:18.577Z,12.60
2019-05-11T12:27:49.068Z,12.70
2019-05-11T12:30:17.907Z,12.80
2019-05-11T12:32:51.787Z,12.90
2019-05-11T12:35:20.624Z,12.70
2019-05-11T12:37:49.422Z,12.50
2019-05-11T12:40:19.718Z,12.60
2019-05-11T12:42:49.029Z,12.50
2019-05-11T12:45:19.746Z,12.50
2019-05-11T12:47:48.534Z,12.90
2019-05-11T12:50:19.162Z,12.80
2019-05-11T12:52:47.973Z,12.70
2019-05-11T12:55:17.971Z,12.90
2019-05-11T12:57:47.772Z,13.10
2019-05-11T13:00:19.134Z,13.20
2019-05-11T13:02:48.450Z,13.10
2019-05-11T13:05:18.134Z,12.90
2019-05-11T13:07:48.116Z,12.80
2019-05-11T13:10:18.225Z,13.00
2019-05-11T13:12:48.983Z,12.90
2019-05-11T13:15:17.649Z,12.80
2019-05-11T13:17:48.875Z,12.60
2019-05-11T13:20:18.093Z,12.80
2019-05-11T13:22:48.897Z,13.10
2019-05-11T13:25:17.773Z,13.30
2019-05-11T13:27:48.932Z,13.30
2019-05-11T13:30:18.364Z,12.90
2019-05-11T13:32:49.072Z,12.70
2019-05-11T13:35:18.225Z,12.80
2019-05-11T13:37:48.672Z,12.90
2019-05-11T13:40:18.762Z,13.20
2019-05-11T13:42:49.397Z,13.30
2019-05-11T13:45:18.202Z,13.50
2019-05-11T13:47:54.419Z,14.00
2019-05-11T13:50:19.518Z,14.30
2019-05-11T13:52:48.371Z,14.20
2019-05-11T13:55:18.267Z,14.30
2019-05-11T13:57:48.564Z,14.50
2019-05-11T14:00:19.377Z,14.50
2019-05-11T14:02:48.666Z,14.40
2019-05-11T14:05:18.150Z,14.30
2019-05-11T14:07:48.362Z,14.20
2019-05-11T14:10:18.296Z,14.20
2019-05-11T14:12:47.764Z,14.60
2019-05-11T14:15:18.847Z,14.60
2019-05-11T14:17:48.683Z,14.70
2019-05-11T14:20:21.051Z,14.70
2019-05-11T14:22:49.862Z,14.40
2019-05-11T14:25:18.905Z,14.00
2019-05-11T14:27:48.125Z,13.80
2019-05-11T14:30:20.154Z,13.50
2019-05-11T14:32:49.042Z,13.50
2019-05-11T14:35:18.823Z,13.60
2019-05-11T14:37:48.660Z,13.40
2019-05-11T14:40:20.951Z,13.60
2019-05-11T14:42:52.247Z,14.10
2019-05-11T14:45:21.203Z,14.50
2019-05-11T14:47:49.958Z,14.70
2019-05-11T14:50:19.283Z,14.60
2019-05-11T14:52:49.095Z,14.80
2019-05-11T14:55:18.525Z,14.70
2019-05-11T14:57:48.630Z,14.50
2019-05-11T15:00:19.428Z,14.40
2019-05-11T15:02:50.070Z,14.70
2019-05-11T15:05:20.600Z,15.20
2019-05-11T15:07:58.630Z,15.80
2019-05-11T15:10:27.896Z,16.10
2019-05-11T15:12:59.076Z,16.20
2019-05-11T15:15:28.009Z,17.00
2019-05-11T15:17:58.319Z,17.20
2019-05-11T15:20:30.443Z,17.00
2019-05-11T15:22:59.478Z,17.60
2019-05-11T15:25:31.468Z,16.90
2019-05-11T15:28:05.787Z,16.40
2019-05-11T15:30:34.846Z,15.90
2019-05-11T15:33:03.736Z,15.60
2019-05-11T15:35:33.153Z,14.80
2019-05-11T15:38:02.010Z,14.80
2019-05-11T15:40:30.943Z,14.40
2019-05-11T15:42:59.868Z,14.70
2019-05-11T15:45:31.736Z,14.90
2019-05-11T15:48:02.105Z,14.50
2019-05-11T15:50:31.484Z,14.20
2019-05-11T15:53:03.162Z,13.60
2019-05-11T15:55:32.136Z,13.20
2019-05-11T15:58:03.959Z,13.00
2019-05-11T16:00:33.284Z,12.80
2019-05-11T16:03:02.160Z,12.80
2019-05-11T16:05:33.818Z,12.80
2019-05-11T16:08:02.745Z,12.60
2019-05-11T16:10:38.436Z,12.50
2019-05-11T16:13:05.237Z,12.40
2019-05-11T16:15:35.578Z,12.30
2019-05-11T16:18:04.923Z,12.60
2019-05-11T16:20:34.945Z,13.20
2019-05-11T16:23:03.971Z,13.60
2019-05-11T16:25:41.078Z,13.80
2019-05-11T16:28:10.581Z,13.90
2019-05-11T16:30:39.938Z,14.00
2019-05-11T16:33:10.431Z,14.10
2019-05-11T16:35:54.388Z,14.40
2019-05-11T16:38:21.587Z,14.20
2019-05-11T16:40:50.787Z,13.90
2019-05-11T16:43:19.645Z,13.90
2019-05-11T16:45:51.166Z,13.70
2019-05-11T16:48:22.011Z,13.40
2019-05-11T16:50:53.061Z,13.40
2019-05-11T16:53:21.919Z,13.30
2019-05-11T16:55:50.831Z,13.20
2019-05-11T16:58:20.115Z,13.10
2019-05-11T17:00:49.345Z,13.00
2019-05-11T17:03:18.208Z,12.80
2019-05-11T17:05:48.443Z,13.00
2019-05-11T17:08:18.763Z,12.90
2019-05-11T17:10:55.759Z,12.80
2019-05-11T17:13:24.496Z,12.70
2019-05-11T17:15:53.491Z,12.60
2019-05-11T17:18:22.384Z,12.50
2019-05-11T17:20:51.717Z,12.60
2019-05-11T17:23:20.599Z,12.80
2019-05-11T17:25:49.530Z,13.00
2019-05-11T17:28:18.501Z,13.00
2019-05-11T17:31:25.494Z,13.00
2019-05-11T17:33:54.223Z,13.20
2019-05-11T17:36:23.154Z,13.20
2019-05-11T17:38:54.110Z,13.10
2019-05-11T17:41:23.190Z,12.80
2019-05-11T17:43:52.047Z,12.90
2019-05-11T17:46:21.009Z,12.90
2019-05-11T17:48:49.879Z,12.60
2019-05-11T17:51:24.205Z,12.30
2019-05-11T17:53:49.811Z,12.10
2019-05-11T17:56:18.678Z,12.10
2019-05-11T17:58:48.349Z,11.90
2019-05-11T18:01:18.609Z,11.80
2019-05-11T18:03:51.053Z,11.70
2019-05-11T18:06:20.375Z,11.60
2019-05-11T18:08:50.057Z,11.40
2019-05-11T18:11:18.867Z,11.50
2019-05-11T18:13:48.334Z,11.70
2019-05-11T18:16:18.691Z,11.70
2019-05-11T18:18:48.730Z,11.60
2019-05-11T18:21:18.806Z,11.60
2019-05-11T18:23:48.391Z,11.60
2019-05-11T18:26:18.081Z,11.60
2019-05-11T18:28:49.808Z,11.70
2019-05-11T18:31:19.407Z,11.70
2019-05-11T18:33:48.961Z,11.70
2019-05-11T18:36:19.490Z,11.70
2019-05-11T18:38:49.000Z,11.90
2019-05-11T18:41:18.596Z,12.10
2019-05-11T18:43:48.330Z,12.20
2019-05-11T18:46:22.183Z,12.20
2019-05-11T18:48:51.619Z,12.20
2019-05-11T18:51:21.224Z,12.10
2019-05-11T18:53:50.903Z,12.00
2019-05-11T18:56:19.891Z,11.90
2019-05-11T18:58:48.808Z,11.90
2019-05-11T19:01:18.365Z,11.80
2019-05-11T19:03:48.406Z,12.00
2019-05-11T19:06:21.059Z,12.00
2019-05-11T19:08:55.419Z,12.00
2019-05-11T19:11:28.903Z,11.90
2019-05-11T19:13:58.183Z,11.80
2019-05-11T19:16:28.766Z,11.70
2019-05-11T19:18:59.150Z,11.60
2019-05-11T19:21:29.749Z,11.60
2019-05-11T19:24:00.608Z,11.60
2019-05-11T19:26:29.995Z,11.50
2019-05-11T19:29:00.761Z,11.40
2019-05-11T19:31:30.524Z,11.20
2019-05-11T19:33:59.890Z,11.30
2019-05-11T19:36:29.630Z,11.40
2019-05-11T19:38:59.455Z,11.30
2019-05-11T19:41:30.123Z,11.20
2019-05-11T19:43:59.672Z,11.10
2019-05-11T19:46:28.483Z,11.00
2019-05-11T19:48:58.229Z,10.90
2019-05-11T19:51:29.113Z,10.80
2019-05-11T19:53:58.750Z,10.70
2019-05-11T19:56:29.005Z,10.70
2019-05-11T19:59:03.686Z,10.70
2019-05-11T20:01:34.078Z,10.70
2019-05-11T20:04:03.487Z,10.60
2019-05-11T20:06:33.057Z,10.60
2019-05-11T20:09:02.247Z,10.50
2019-05-11T20:11:32.349Z,10.50
2019-05-11T20:14:02.007Z,10.40
2019-05-11T20:16:32.758Z,10.40
2019-05-11T20:19:03.563Z,10.40
2019-05-11T20:21:34.609Z,10.30
2019-05-11T20:24:04.246Z,10.20
2019-05-11T20:26:34.877Z,10.20
2019-05-11T20:29:07.924Z,10.20
2019-05-11T20:31:37.128Z,10.20
2019-05-11T20:34:08.914Z,10.10
2019-05-11T20:36:38.360Z,10.10
2019-05-11T20:39:10.877Z,10.00
2019-05-11T20:41:40.182Z,10.00
2019-05-11T20:44:11.166Z,9.90
2019-05-11T20:46:40.713Z,9.80
2019-05-11T20:49:13.452Z,9.80
2019-05-11T20:51:45.820Z,9.70
2019-05-11T20:54:14.819Z,9.70
2019-05-11T20:56:44.123Z,9.60
2019-05-11T20:59:13.407Z,9.60
2019-05-11T21:01:43.087Z,9.60
2019-05-11T21:04:12.497Z,9.50
2019-05-11T21:06:41.776Z,9.50
2019-05-11T21:09:12.846Z,9.50
2019-05-11T21:11:47.830Z,9.40
2019-05-11T21:14:14.832Z,9.40
2019-05-11T21:16:43.607Z,9.30
2019-05-11T21:19:12.546Z,9.30
2019-05-11T21:21:49.801Z,9.40
2019-05-11T21:24:11.820Z,9.30
2019-05-11T21:26:40.555Z,9.30
2019-05-11T21:29:09.512Z,9.30
2019-05-11T21:31:40.785Z,9.30
2019-05-11T21:34:08.767Z,9.30
2019-05-11T21:36:37.958Z,9.20
2019-05-11T21:39:08.581Z,9.20
2019-05-11T21:41:38.634Z,9.20
2019-05-11T21:44:08.305Z,9.10
2019-05-11T21:46:38.763Z,9.20
2019-05-11T21:49:08.128Z,9.10
2019-05-11T21:51:38.141Z,9.10
2019-05-11T21:54:07.165Z,9.10
2019-05-11T21:56:38.024Z,9.00
2019-05-11T21:59:07.958Z,8.90
2019-05-11T22:01:38.514Z,8.90
2019-05-11T22:04:11.065Z,9.00
2019-05-11T22:06:39.240Z,8.90
2019-05-11T22:09:09.412Z,8.90
2019-05-11T22:11:38.289Z,8.90
2019-05-11T22:14:08.324Z,8.80
2019-05-11T22:16:38.772Z,8.80
2019-05-11T22:19:08.856Z,8.80
2019-05-11T22:21:38.166Z,8.70
2019-05-11T22:24:08.629Z,8.80
2019-05-11T22:26:37.949Z,8.80
2019-05-11T22:29:07.876Z,8.70
2019-05-11T22:31:38.596Z,8.70
2019-05-11T22:34:08.931Z,8.70
2019-05-11T22:36:38.551Z,8.70
2019-05-11T22:39:09.046Z,8.70
2019-05-11T22:41:39.664Z,8.60
2019-05-11T22:44:11.070Z,8.60
2019-05-11T22:46:38.891Z,8.60
2019-05-11T22:49:08.499Z,8.60
2019-05-11T22:51:37.460Z,8.60
2019-05-11T22:54:08.035Z,8.50
2019-05-11T22:56:38.018Z,8.60
2019-05-11T22:59:08.295Z,8.50
2019-05-11T23:01:37.819Z,8.50
2019-05-11T23:04:06.808Z,8.40
2019-05-11T23:06:35.573Z,8.40
2019-05-11T23:09:07.932Z,8.40
2019-05-11T23:11:37.957Z,8.40
2019-05-11T23:14:09.849Z,8.40
2019-05-11T23:16:37.632Z,8.40
2019-05-11T23:19:09.528Z,8.30
2019-05-11T23:21:38.888Z,8.30
2019-05-11T23:24:07.685Z,8.30
2019-05-11T23:26:38.567Z,8.30
2019-05-11T23:29:08.147Z,8.20
2019-05-11T23:31:38.250Z,8.20
2019-05-11T23:34:08.340Z,8.10
2019-05-11T23:36:38.306Z,8.10
2019-05-11T23:39:09.130Z,8.10
2019-05-11T23:41:38.146Z,8.10
2019-05-11T23:44:08.870Z,8.10
2019-05-11T23:46:40.202Z,8.10
2019-05-11T23:49:09.269Z,8.10
2019-05-11T23:51:38.697Z,8.00
2019-05-11T23:54:08.009Z,8.10
2019-05-11T23:56:38.705Z,8.10
2019-05-11T23:59:08.258Z,8.10
